Time;durP1;ratioP1;P1;durP2;ratioP2;P2;SDS_P1;SDS_P2;PMS_P1;PMS_P2;Temp;Humidity;BMP_temperature;BMP_pressure;BME280_temperature;BME280_humidity;BME280_pressure;Samples;Min_cycle;Max_cycle;Signal;HPM_P1;HPM_P2
2023/05/24 00:00:23;;;;;;;17.65;5.97;;;;;;;;;;5048079;28;20041;-62
2023/05/24 00:02:49;;;;;;;18.35;6.13;;;;;;;;;;5051180;28;20493;-62
2023/05/24 00:05:17;;;;;;;19.85;6.78;;;;;;;;;;5048931;28;20570;-62
2023/05/24 00:07:43;;;;;;;21.10;6.55;;;;;;;;;;5041814;28;20380;-62
2023/05/24 00:10:10;;;;;;;18.88;6.25;;;;;;;;;;5054909;28;20711;-62
2023/05/24 00:12:39;;;;;;;23.45;7.38;;;;;;;;;;5047516;28;20072;-61
2023/05/24 00:15:06;;;;;;;13.30;5.93;;;;;;;;;;4978309;28;20037;-62
2023/05/24 00:17:33;;;;;;;18.65;5.78;;;;;;;;;;5043533;28;20553;-62
2023/05/24 00:20:00;;;;;;;15.73;6.10;;;;;;;;;;5058075;28;20048;-62
2023/05/24 00:22:26;;;;;;;13.95;5.88;;;;;;;;;;5053622;28;20048;-62
2023/05/24 00:24:52;;;;;;;13.95;5.90;;;;;;;;;;5047601;28;20037;-62
2023/05/24 00:27:18;;;;;;;12.52;5.55;;;;;;;;;;5044984;28;20103;-62
2023/05/24 00:29:44;;;;;;;23.48;7.60;;;;;;;;;;5056715;28;20643;-62
2023/05/24 00:32:10;;;;;;;11.60;5.40;;;;;;;;;;5052460;28;20116;-62
2023/05/24 00:34:36;;;;;;;12.75;6.90;;;;;;;;;;5042841;28;20597;-62
2023/05/24 00:37:02;;;;;;;25.10;8.23;;;;;;;;;;5048375;28;20040;-62
2023/05/24 00:39:29;;;;;;;14.23;5.75;;;;;;;;;;5058216;28;20123;-62
2023/05/24 00:41:55;;;;;;;15.50;5.65;;;;;;;;;;5053152;28;20486;-62
2023/05/24 00:44:21;;;;;;;18.73;6.50;;;;;;;;;;5048245;28;20055;-61
2023/05/24 00:46:47;;;;;;;15.77;4.95;;;;;;;;;;5045587;28;20361;-61
2023/05/24 00:49:14;;;;;;;15.75;5.43;;;;;;;;;;5052106;28;20045;-62
2023/05/24 00:51:40;;;;;;;18.00;6.75;;;;;;;;;;5048075;28;20048;-61
2023/05/24 00:54:06;;;;;;;11.90;4.93;;;;;;;;;;5048298;28;20066;-62
2023/05/24 00:56:32;;;;;;;16.60;5.25;;;;;;;;;;5047681;28;20033;-62
2023/05/24 00:58:59;;;;;;;10.60;4.95;;;;;;;;;;5048218;28;20084;-62
2023/05/24 01:01:29;;;;;;;12.95;4.65;;;;;;;;;;5045004;28;20248;-61
2023/05/24 01:03:56;;;;;;;15.10;5.93;;;;;;;;;;5045694;28;20033;-61
2023/05/24 01:06:23;;;;;;;12.60;6.28;;;;;;;;;;5039676;28;20052;-62
2023/05/24 01:08:49;;;;;;;20.80;5.93;;;;;;;;;;5042176;28;20443;-62
2023/05/24 01:11:25;;;;;;;15.70;5.47;;;;;;;;;;5047044;28;20044;-62
2023/05/24 01:14:13;;;;;;;18.25;6.25;;;;;;;;;;5041194;28;20506;-62
2023/05/24 01:16:45;;;;;;;17.15;5.40;;;;;;;;;;5041470;28;20044;-62
2023/05/24 01:19:24;;;;;;;12.75;5.35;;;;;;;;;;5047159;28;20033;-62
2023/05/24 01:22:10;;;;;;;15.75;5.15;;;;;;;;;;5048165;28;20037;-62
2023/05/24 01:24:55;;;;;;;13.13;5.18;;;;;;;;;;5042098;28;20041;-62
2023/05/24 01:27:22;;;;;;;18.63;5.60;;;;;;;;;;5039033;28;20049;-62
2023/05/24 01:29:52;;;;;;;14.00;4.65;;;;;;;;;;5046809;28;20056;-62
2023/05/24 01:32:21;;;;;;;19.98;6.05;;;;;;;;;;5048606;28;20482;-61
2023/05/24 01:34:47;;;;;;;14.57;5.88;;;;;;;;;;5047094;28;20499;-61
2023/05/24 01:37:13;;;;;;;20.98;7.07;;;;;;;;;;5046391;28;20525;-61
2023/05/24 01:39:39;;;;;;;21.08;6.25;;;;;;;;;;5034126;28;20037;-61
2023/05/24 01:42:24;;;;;;;13.77;5.47;;;;;;;;;;5057397;28;20154;-61
2023/05/24 01:45:11;;;;;;;16.10;6.15;;;;;;;;;;5044584;28;20102;-62
2023/05/24 01:47:49;;;;;;;28.67;6.82;;;;;;;;;;5039229;28;20057;-61
2023/05/24 01:50:22;;;;;;;16.25;5.80;;;;;;;;;;5045213;28;20112;-61
2023/05/24 01:52:49;;;;;;;12.45;5.47;;;;;;;;;;5047624;28;20118;-61
2023/05/24 01:55:17;;;;;;;19.60;6.22;;;;;;;;;;5048020;28;20399;-62
2023/05/24 01:57:44;;;;;;;16.88;5.13;;;;;;;;;;5040266;28;20056;-62
2023/05/24 02:00:11;;;;;;;17.90;5.35;;;;;;;;;;5042894;28;20041;-61
2023/05/24 02:02:37;;;;;;;13.80;5.13;;;;;;;;;;5046571;28;20091;-62
2023/05/24 02:05:03;;;;;;;13.65;5.38;;;;;;;;;;5045560;28;20033;-62
2023/05/24 02:07:30;;;;;;;14.07;5.72;;;;;;;;;;5047799;28;20376;-63
2023/05/24 02:09:56;;;;;;;10.68;5.18;;;;;;;;;;5046828;28;20033;-62
2023/05/24 02:12:22;;;;;;;17.10;5.93;;;;;;;;;;5047334;28;20047;-62
2023/05/24 02:14:49;;;;;;;15.05;4.97;;;;;;;;;;5045336;28;20160;-62
2023/05/24 02:17:16;;;;;;;13.63;5.03;;;;;;;;;;5039464;28;20041;-62
2023/05/24 02:19:43;;;;;;;10.55;5.35;;;;;;;;;;5047410;28;20048;-62
2023/05/24 02:22:09;;;;;;;19.40;6.85;;;;;;;;;;5051323;28;20036;-62
2023/05/24 02:24:36;;;;;;;19.17;4.57;;;;;;;;;;5049226;28;20124;-61
2023/05/24 02:27:02;;;;;;;12.25;5.68;;;;;;;;;;5044192;28;20072;-62
2023/05/24 02:29:28;;;;;;;15.27;6.15;;;;;;;;;;5047426;28;20671;-62
2023/05/24 02:31:55;;;;;;;15.68;6.88;;;;;;;;;;5052616;28;20037;-62
2023/05/24 02:34:22;;;;;;;15.73;5.13;;;;;;;;;;5052080;28;20049;-62
2023/05/24 02:36:48;;;;;;;16.42;5.05;;;;;;;;;;5053146;28;20056;-62
2023/05/24 02:39:15;;;;;;;20.48;5.55;;;;;;;;;;5048610;28;20056;-63
2023/05/24 02:41:41;;;;;;;10.75;5.18;;;;;;;;;;5050407;28;20520;-62
2023/05/24 02:44:07;;;;;;;17.75;5.47;;;;;;;;;;5051158;28;20149;-62
2023/05/24 02:46:33;;;;;;;16.80;4.70;;;;;;;;;;5048805;28;20055;-62
2023/05/24 02:48:59;;;;;;;16.95;5.80;;;;;;;;;;5050465;28;20040;-62
2023/05/24 02:51:25;;;;;;;16.80;5.75;;;;;;;;;;5048359;28;20073;-63
2023/05/24 02:53:51;;;;;;;17.13;5.60;;;;;;;;;;5040955;28;20072;-63
2023/05/24 02:56:18;;;;;;;13.68;5.53;;;;;;;;;;5049189;28;20041;-62
2023/05/24 02:58:44;;;;;;;16.50;5.75;;;;;;;;;;5048129;28;20483;-63
2023/05/24 03:01:11;;;;;;;13.55;5.47;;;;;;;;;;5042042;28;20049;-62
2023/05/24 03:03:40;;;;;;;14.55;6.00;;;;;;;;;;5042169;28;20036;-62
2023/05/24 03:06:07;;;;;;;13.13;4.80;;;;;;;;;;5049632;28;20041;-62
2023/05/24 03:08:36;;;;;;;14.88;4.90;;;;;;;;;;5050637;28;20094;-62
2023/05/24 03:11:02;;;;;;;19.63;5.85;;;;;;;;;;5049895;28;20055;-62
2023/05/24 03:13:28;;;;;;;19.10;5.15;;;;;;;;;;5050025;28;20339;-62
2023/05/24 03:15:55;;;;;;;13.73;6.07;;;;;;;;;;5045125;28;20045;-63
2023/05/24 03:18:21;;;;;;;15.35;4.53;;;;;;;;;;5050431;28;20130;-62
2023/05/24 03:20:47;;;;;;;15.55;4.88;;;;;;;;;;5042547;28;20048;-62
2023/05/24 03:23:13;;;;;;;14.45;5.15;;;;;;;;;;5040921;28;20454;-62
2023/05/24 03:25:40;;;;;;;15.52;4.65;;;;;;;;;;5049849;28;20153;-62
2023/05/24 03:28:06;;;;;;;11.88;4.82;;;;;;;;;;5049896;28;20576;-62
2023/05/24 03:30:33;;;;;;;20.83;5.28;;;;;;;;;;5035723;28;20040;-62
2023/05/24 03:33:00;;;;;;;13.05;5.43;;;;;;;;;;5049713;28;20044;-60
2023/05/24 03:35:26;;;;;;;12.60;4.35;;;;;;;;;;5050638;28;20063;-61
2023/05/24 03:37:52;;;;;;;10.00;4.35;;;;;;;;;;5045194;28;20522;-61
2023/05/24 03:40:18;;;;;;;17.35;6.28;;;;;;;;;;5039593;28;20119;-62
2023/05/24 03:42:44;;;;;;;19.17;6.03;;;;;;;;;;5048686;28;20076;-62
2023/05/24 03:45:11;;;;;;;12.32;4.57;;;;;;;;;;5048893;28;20097;-62
2023/05/24 03:47:37;;;;;;;10.35;5.15;;;;;;;;;;5045409;28;20111;-62
2023/05/24 03:50:03;;;;;;;10.82;4.25;;;;;;;;;;5048734;28;20075;-62
2023/05/24 03:52:29;;;;;;;13.75;4.93;;;;;;;;;;5049287;28;20395;-62
2023/05/24 03:54:55;;;;;;;10.63;4.82;;;;;;;;;;5049055;28;20351;-62
2023/05/24 03:57:21;;;;;;;12.95;4.78;;;;;;;;;;5049052;28;20511;-62
2023/05/24 03:59:48;;;;;;;14.27;4.20;;;;;;;;;;5047611;28;20577;-62
2023/05/24 04:02:14;;;;;;;12.73;4.43;;;;;;;;;;5049321;28;20076;-62
2023/05/24 04:04:40;;;;;;;12.70;5.10;;;;;;;;;;5047942;28;20120;-62
2023/05/24 04:07:07;;;;;;;12.52;5.13;;;;;;;;;;5036006;28;20155;-62
2023/05/24 04:09:33;;;;;;;10.25;4.45;;;;;;;;;;5045434;28;20140;-62
2023/05/24 04:11:59;;;;;;;10.43;5.22;;;;;;;;;;5047893;28;20231;-62
2023/05/24 04:14:26;;;;;;;17.95;5.25;;;;;;;;;;5046538;28;20052;-62
2023/05/24 04:16:52;;;;;;;12.95;4.35;;;;;;;;;;5048372;28;20040;-62
2023/05/24 04:19:18;;;;;;;12.65;4.63;;;;;;;;;;5053321;28;20032;-62
2023/05/24 04:21:44;;;;;;;14.40;5.50;;;;;;;;;;5054722;28;20060;-62
2023/05/24 04:24:11;;;;;;;12.48;5.85;;;;;;;;;;5048784;28;20146;-62
2023/05/24 04:26:37;;;;;;;16.90;4.63;;;;;;;;;;5042633;28;20048;-62
2023/05/24 04:29:03;;;;;;;17.13;5.32;;;;;;;;;;5039255;28;20029;-61
2023/05/24 04:31:32;;;;;;;12.75;6.55;;;;;;;;;;5045489;28;20124;-62
2023/05/24 04:33:58;;;;;;;19.25;5.55;;;;;;;;;;5045234;28;20505;-62
2023/05/24 04:36:25;;;;;;;14.77;6.05;;;;;;;;;;5040993;28;20074;-61
2023/05/24 04:39:01;;;;;;;14.05;5.68;;;;;;;;;;5047774;28;20370;-61
2023/05/24 04:41:30;;;;;;;14.00;5.15;;;;;;;;;;5035745;28;20041;-61
2023/05/24 04:43:58;;;;;;;17.70;4.72;;;;;;;;;;5044147;28;20053;-62
2023/05/24 04:46:25;;;;;;;17.17;6.03;;;;;;;;;;5039187;28;20078;-61
2023/05/24 04:48:52;;;;;;;18.95;5.68;;;;;;;;;;5045813;28;20064;-62
2023/05/24 04:51:18;;;;;;;13.70;5.35;;;;;;;;;;5043082;28;20077;-62
2023/05/24 04:53:44;;;;;;;16.80;4.90;;;;;;;;;;5046908;28;20041;-62
2023/05/24 04:56:13;;;;;;;16.73;4.78;;;;;;;;;;5042558;28;20033;-62
2023/05/24 04:58:40;;;;;;;19.92;5.90;;;;;;;;;;5046231;28;20517;-64
2023/05/24 05:01:06;;;;;;;13.68;5.60;;;;;;;;;;5039791;28;20042;-62
2023/05/24 05:03:32;;;;;;;15.98;6.20;;;;;;;;;;5050971;28;20033;-62
2023/05/24 05:05:59;;;;;;;19.42;5.97;;;;;;;;;;5045311;28;20116;-61
2023/05/24 05:08:25;;;;;;;12.88;5.15;;;;;;;;;;5046896;28;20540;-61
2023/05/24 05:10:51;;;;;;;10.50;4.68;;;;;;;;;;5046453;28;20541;-62
2023/05/24 05:13:17;;;;;;;17.42;6.68;;;;;;;;;;5038433;28;20037;-62
2023/05/24 05:15:43;;;;;;;24.42;6.82;;;;;;;;;;5045351;28;20033;-62
2023/05/24 05:18:09;;;;;;;15.20;6.60;;;;;;;;;;5034172;28;20041;-62
2023/05/24 05:20:36;;;;;;;11.68;5.13;;;;;;;;;;5036082;28;20045;-61
2023/05/24 05:23:02;;;;;;;10.68;5.13;;;;;;;;;;5053771;28;20049;-62
2023/05/24 05:25:29;;;;;;;17.98;5.63;;;;;;;;;;5053165;28;20094;-62
2023/05/24 05:27:55;;;;;;;11.77;6.18;;;;;;;;;;5050687;28;20056;-62
2023/05/24 05:30:22;;;;;;;17.83;6.70;;;;;;;;;;5041571;28;20048;-62
2023/05/24 05:32:48;;;;;;;9.32;4.22;;;;;;;;;;5055181;28;20562;-63
2023/05/24 05:35:14;;;;;;;15.50;5.47;;;;;;;;;;5045370;28;20029;-62
2023/05/24 05:37:40;;;;;;;16.83;5.75;;;;;;;;;;5045174;28;20041;-62
2023/05/24 05:40:07;;;;;;;19.35;5.38;;;;;;;;;;5046813;28;20058;-62
2023/05/24 05:42:33;;;;;;;15.88;5.38;;;;;;;;;;5051422;28;20116;-62
2023/05/24 05:44:59;;;;;;;18.67;6.65;;;;;;;;;;5049680;28;20053;-62
2023/05/24 05:47:25;;;;;;;9.45;5.03;;;;;;;;;;5048285;28;20056;-62
2023/05/24 05:49:51;;;;;;;9.15;5.20;;;;;;;;;;5051081;28;20047;-62
2023/05/24 05:52:17;;;;;;;14.65;4.55;;;;;;;;;;5049414;28;20041;-62
2023/05/24 05:54:43;;;;;;;12.52;4.85;;;;;;;;;;5036451;28;20160;-62
2023/05/24 05:57:10;;;;;;;14.20;6.13;;;;;;;;;;5051005;28;20475;-62
2023/05/24 05:59:37;;;;;;;15.15;5.13;;;;;;;;;;5052683;28;20041;-62
2023/05/24 06:02:04;;;;;;;14.05;5.72;;;;;;;;;;5043530;28;20071;-62
2023/05/24 06:04:30;;;;;;;13.00;4.97;;;;;;;;;;5044498;28;20041;-62
2023/05/24 06:06:56;;;;;;;20.25;5.78;;;;;;;;;;5040805;28;20309;-62
2023/05/24 06:09:22;;;;;;;22.23;5.60;;;;;;;;;;5040186;28;20041;-62
2023/05/24 06:11:49;;;;;;;13.77;4.80;;;;;;;;;;5045002;28;20052;-62
2023/05/24 06:14:17;;;;;;;23.17;6.90;;;;;;;;;;5045714;28;20280;-62
2023/05/24 06:16:44;;;;;;;13.75;4.95;;;;;;;;;;5040164;28;20386;-62
2023/05/24 06:19:11;;;;;;;12.80;4.43;;;;;;;;;;5048603;28;20120;-62
2023/05/24 06:21:37;;;;;;;15.05;5.35;;;;;;;;;;5050476;28;20043;-62
2023/05/24 06:24:03;;;;;;;16.33;5.57;;;;;;;;;;5040337;28;20045;-62
2023/05/24 06:26:29;;;;;;;9.95;4.70;;;;;;;;;;5040455;28;20037;-62
2023/05/24 06:28:56;;;;;;;13.52;5.13;;;;;;;;;;5049091;28;20050;-62
2023/05/24 06:31:22;;;;;;;18.95;5.20;;;;;;;;;;5045137;28;20531;-62
2023/05/24 06:33:48;;;;;;;14.60;6.18;;;;;;;;;;5045265;28;20049;-62
2023/05/24 06:36:14;;;;;;;13.25;4.93;;;;;;;;;;5032439;28;20128;-62
2023/05/24 06:38:40;;;;;;;18.20;6.20;;;;;;;;;;5054720;28;20562;-62
2023/05/24 06:41:07;;;;;;;13.43;5.93;;;;;;;;;;5049011;28;20205;-62
2023/05/24 06:43:33;;;;;;;17.13;6.20;;;;;;;;;;5049246;28;20171;-62
2023/05/24 06:45:59;;;;;;;19.63;7.82;;;;;;;;;;5044560;28;20132;-62
2023/05/24 06:48:26;;;;;;;17.98;7.93;;;;;;;;;;5053531;28;20116;-62
2023/05/24 06:50:52;;;;;;;18.33;7.95;;;;;;;;;;5047023;28;20552;-62
2023/05/24 06:53:18;;;;;;;12.55;6.13;;;;;;;;;;5044327;28;20086;-62
2023/05/24 06:55:44;;;;;;;21.40;7.85;;;;;;;;;;5047500;28;20510;-62
2023/05/24 06:58:14;;;;;;;10.32;4.80;;;;;;;;;;5055695;28;20044;-62
2023/05/24 07:00:41;;;;;;;12.80;5.22;;;;;;;;;;5044730;28;20037;-63
2023/05/24 07:03:12;;;;;;;12.82;6.45;;;;;;;;;;5044464;28;20033;-63
2023/05/24 07:05:38;;;;;;;19.40;5.95;;;;;;;;;;5053347;28;20490;-63
2023/05/24 07:08:04;;;;;;;10.40;4.60;;;;;;;;;;5056635;28;20099;-62
2023/05/24 07:10:30;;;;;;;19.75;6.80;;;;;;;;;;5039890;28;20542;-62
2023/05/24 07:12:57;;;;;;;14.40;5.15;;;;;;;;;;5043414;28;20036;-63
2023/05/24 07:15:23;;;;;;;12.80;5.20;;;;;;;;;;5051012;28;20057;-62
2023/05/24 07:17:49;;;;;;;12.77;5.47;;;;;;;;;;5049583;28;20075;-62
2023/05/24 07:20:15;;;;;;;11.52;4.03;;;;;;;;;;5043778;28;20041;-62
2023/05/24 07:22:42;;;;;;;14.35;4.55;;;;;;;;;;5045940;28;20071;-61
2023/05/24 07:25:09;;;;;;;14.73;4.88;;;;;;;;;;5051035;28;20171;-62
2023/05/24 07:27:35;;;;;;;13.45;3.92;;;;;;;;;;5053978;28;20109;-61
2023/05/24 07:30:02;;;;;;;10.07;4.28;;;;;;;;;;5034690;28;20220;-62
2023/05/24 07:32:28;;;;;;;16.58;4.78;;;;;;;;;;5048811;28;20135;-61
2023/05/24 07:34:54;;;;;;;15.80;4.93;;;;;;;;;;5044950;28;20124;-61
2023/05/24 07:37:22;;;;;;;16.83;5.45;;;;;;;;;;5063341;28;20514;-63
2023/05/24 07:39:50;;;;;;;14.50;4.35;;;;;;;;;;5045135;28;20503;-62
2023/05/24 07:42:16;;;;;;;14.25;4.10;;;;;;;;;;5050775;28;20048;-62
2023/05/24 07:44:42;;;;;;;11.25;4.25;;;;;;;;;;5050797;28;20148;-62
2023/05/24 07:47:08;;;;;;;18.33;4.25;;;;;;;;;;5061192;28;20045;-62
2023/05/24 07:49:34;;;;;;;9.52;4.00;;;;;;;;;;5048152;28;20479;-61
2023/05/24 07:52:02;;;;;;;7.80;3.47;;;;;;;;;;5049672;28;20036;-61
2023/05/24 07:54:29;;;;;;;7.90;3.88;;;;;;;;;;5043620;28;20080;-62
2023/05/24 07:56:56;;;;;;;13.02;4.90;;;;;;;;;;5049215;28;20033;-62
2023/05/24 07:59:22;;;;;;;11.20;4.03;;;;;;;;;;5042643;28;20470;-62
2023/05/24 08:01:49;;;;;;;20.95;4.53;;;;;;;;;;5048908;28;20037;-62
2023/05/24 08:04:15;;;;;;;14.23;4.93;;;;;;;;;;5049702;28;20033;-63
2023/05/24 08:06:41;;;;;;;10.93;4.13;;;;;;;;;;5048845;28;20088;-62
2023/05/24 08:09:08;;;;;;;11.82;5.18;;;;;;;;;;5049456;28;20037;-62
2023/05/24 08:11:34;;;;;;;12.40;4.70;;;;;;;;;;5050161;28;20033;-62
2023/05/24 08:14:00;;;;;;;17.20;4.05;;;;;;;;;;5049967;28;20282;-63
2023/05/24 08:16:26;;;;;;;12.75;5.47;;;;;;;;;;5048339;28;20071;-63
2023/05/24 08:18:53;;;;;;;11.27;5.00;;;;;;;;;;5048412;28;20045;-62
2023/05/24 08:21:19;;;;;;;16.02;4.72;;;;;;;;;;5050196;28;20041;-62
2023/05/24 08:23:45;;;;;;;10.48;4.55;;;;;;;;;;5049952;28;20155;-63
2023/05/24 08:26:11;;;;;;;8.27;3.40;;;;;;;;;;5048965;28;20583;-62
2023/05/24 08:28:37;;;;;;;10.05;3.83;;;;;;;;;;5048862;28;20130;-62
2023/05/24 08:31:03;;;;;;;8.15;3.63;;;;;;;;;;5048496;28;20120;-62
2023/05/24 08:33:29;;;;;;;15.55;4.65;;;;;;;;;;5050457;28;20039;-63
2023/05/24 08:35:56;;;;;;;13.55;5.07;;;;;;;;;;5048505;28;20082;-62
2023/05/24 08:38:22;;;;;;;15.05;4.72;;;;;;;;;;5051698;28;20076;-63
2023/05/24 08:40:48;;;;;;;14.52;5.10;;;;;;;;;;5042509;28;20041;-62
2023/05/24 08:43:14;;;;;;;11.07;4.05;;;;;;;;;;5035918;28;20279;-63
2023/05/24 08:45:41;;;;;;;21.92;4.53;;;;;;;;;;5035981;28;20108;-63
2023/05/24 08:48:08;;;;;;;10.65;4.93;;;;;;;;;;5049808;28;20045;-62
2023/05/24 08:50:35;;;;;;;13.38;4.50;;;;;;;;;;5054900;28;20431;-63
2023/05/24 08:53:01;;;;;;;14.85;4.53;;;;;;;;;;5050462;28;20037;-62
2023/05/24 08:55:29;;;;;;;7.95;4.30;;;;;;;;;;5047579;28;20517;-62
2023/05/24 08:57:55;;;;;;;8.60;4.68;;;;;;;;;;5048557;28;20055;-62
2023/05/24 09:00:22;;;;;;;7.20;3.78;;;;;;;;;;5047253;28;20037;-62
2023/05/24 09:02:49;;;;;;;13.65;5.60;;;;;;;;;;5047507;28;20088;-62
2023/05/24 09:05:16;;;;;;;12.02;3.75;;;;;;;;;;5048360;28;20044;-62
2023/05/24 09:07:45;;;;;;;12.43;3.85;;;;;;;;;;5049214;28;20102;-62
2023/05/24 09:10:12;;;;;;;12.80;4.22;;;;;;;;;;5048279;28;20064;-63
2023/05/24 09:12:38;;;;;;;10.43;3.67;;;;;;;;;;5048848;28;20087;-62
2023/05/24 09:15:05;;;;;;;8.80;3.90;;;;;;;;;;5046640;28;20047;-62
2023/05/24 09:17:31;;;;;;;13.48;4.40;;;;;;;;;;5048537;28;20069;-63
2023/05/24 09:19:58;;;;;;;10.98;3.42;;;;;;;;;;5047615;28;20132;-63
2023/05/24 09:22:26;;;;;;;15.45;4.85;;;;;;;;;;5048404;28;20163;-62
2023/05/24 09:24:52;;;;;;;8.90;4.15;;;;;;;;;;5051217;28;20203;-63
2023/05/24 09:27:22;;;;;;;9.93;4.50;;;;;;;;;;5048433;28;20045;-62
2023/05/24 09:29:52;;;;;;;7.45;3.83;;;;;;;;;;5049491;28;20218;-63
2023/05/24 09:32:20;;;;;;;14.25;4.80;;;;;;;;;;5052527;28;20037;-62
2023/05/24 09:34:47;;;;;;;12.27;3.80;;;;;;;;;;5052944;28;20491;-63
2023/05/24 09:37:17;;;;;;;8.10;4.65;;;;;;;;;;5052061;28;20048;-63
2023/05/24 09:39:46;;;;;;;8.48;4.20;;;;;;;;;;5053782;28;20108;-62
2023/05/24 09:42:17;;;;;;;15.98;3.63;;;;;;;;;;5054456;28;20037;-63
2023/05/24 09:44:43;;;;;;;9.38;3.50;;;;;;;;;;5052691;28;20041;-63
2023/05/24 09:47:11;;;;;;;13.98;4.57;;;;;;;;;;5049704;28;20473;-62
2023/05/24 09:49:37;;;;;;;8.23;4.40;;;;;;;;;;5047620;28;20072;-62
2023/05/24 09:52:03;;;;;;;15.25;4.43;;;;;;;;;;5058395;28;20517;-62
2023/05/24 09:54:31;;;;;;;10.95;3.97;;;;;;;;;;5057833;28;20037;-62
2023/05/24 09:57:00;;;;;;;8.65;4.13;;;;;;;;;;5048807;28;20091;-62
2023/05/24 09:59:27;;;;;;;8.77;3.42;;;;;;;;;;5049784;28;20044;-62
2023/05/24 10:02:09;;;;;;;10.95;3.88;;;;;;;;;;5056011;28;20037;-62
2023/05/24 10:04:35;;;;;;;9.07;4.07;;;;;;;;;;5060617;28;20043;-63
2023/05/24 10:07:02;;;;;;;19.73;4.43;;;;;;;;;;5063670;28;20098;-62
2023/05/24 10:09:35;;;;;;;8.07;3.55;;;;;;;;;;5051319;28;20527;-62
2023/05/24 10:12:05;;;;;;;8.00;4.05;;;;;;;;;;5051851;28;20033;-63
2023/05/24 10:14:34;;;;;;;9.30;3.75;;;;;;;;;;5049362;28;20482;-63
2023/05/24 10:17:01;;;;;;;9.63;3.92;;;;;;;;;;5051506;28;20068;-62
2023/05/24 10:19:27;;;;;;;12.13;4.40;;;;;;;;;;5049641;28;20040;-62
2023/05/24 10:21:56;;;;;;;8.90;3.30;;;;;;;;;;5060800;28;20045;-62
2023/05/24 10:24:23;;;;;;;12.68;4.63;;;;;;;;;;5063683;28;20044;-63
2023/05/24 10:26:51;;;;;;;13.00;3.22;;;;;;;;;;5051040;28;20406;-63
2023/05/24 10:29:24;;;;;;;12.50;4.05;;;;;;;;;;5060427;28;20029;-63
2023/05/24 10:31:52;;;;;;;12.20;3.88;;;;;;;;;;5054495;28;20082;-63
2023/05/24 10:34:18;;;;;;;10.00;3.75;;;;;;;;;;5050721;28;20072;-62
2023/05/24 10:36:44;;;;;;;11.73;3.60;;;;;;;;;;5062210;28;20181;-63
2023/05/24 10:39:11;;;;;;;12.40;3.97;;;;;;;;;;5043487;28;20487;-62
2023/05/24 10:41:40;;;;;;;13.98;3.85;;;;;;;;;;5049566;28;20045;-62
2023/05/24 10:44:12;;;;;;;10.15;3.80;;;;;;;;;;5043630;28;20048;-63
2023/05/24 10:46:57;;;;;;;9.95;4.20;;;;;;;;;;5043355;28;20400;-63
2023/05/24 10:49:23;;;;;;;8.82;4.10;;;;;;;;;;5051946;28;20531;-63
2023/05/24 10:51:49;;;;;;;9.02;3.60;;;;;;;;;;5050107;28;20037;-62
2023/05/24 10:54:16;;;;;;;11.82;4.65;;;;;;;;;;5049815;28;20067;-62
2023/05/24 10:56:46;;;;;;;10.32;4.13;;;;;;;;;;5058069;28;20076;-62
2023/05/24 10:59:44;;;;;;;10.02;4.53;;;;;;;;;;5062103;28;20090;-63
2023/05/24 11:02:14;;;;;;;12.80;4.10;;;;;;;;;;5036609;28;20045;-62
2023/05/24 11:04:42;;;;;;;12.43;4.53;;;;;;;;;;5053239;28;20037;-63
2023/05/24 11:07:08;;;;;;;10.32;6.05;;;;;;;;;;5057840;28;20425;-63
2023/05/24 11:09:35;;;;;;;11.48;4.30;;;;;;;;;;5062367;28;20386;-63
2023/05/24 11:12:06;;;;;;;14.07;4.57;;;;;;;;;;5060988;28;20546;-63
2023/05/24 11:14:33;;;;;;;15.48;4.82;;;;;;;;;;5054448;28;20525;-63
2023/05/24 11:16:59;;;;;;;9.43;3.65;;;;;;;;;;5059561;28;20099;-62
2023/05/24 11:19:49;;;;;;;7.00;3.45;;;;;;;;;;5060957;28;20128;-63
2023/05/24 11:22:15;;;;;;;7.85;3.47;;;;;;;;;;5043321;28;20053;-63
2023/05/24 11:24:42;;;;;;;10.90;4.00;;;;;;;;;;5040913;28;20040;-64
2023/05/24 11:27:10;;;;;;;7.90;3.05;;;;;;;;;;5049924;28;20147;-63
2023/05/24 11:29:40;;;;;;;12.27;4.25;;;;;;;;;;5047213;28;20043;-62
2023/05/24 11:32:06;;;;;;;7.28;3.28;;;;;;;;;;5053059;28;20056;-62
2023/05/24 11:34:33;;;;;;;10.30;3.15;;;;;;;;;;5053085;28;20076;-63
2023/05/24 11:37:00;;;;;;;10.35;3.75;;;;;;;;;;5055372;28;20044;-63
2023/05/24 11:39:31;;;;;;;11.05;4.25;;;;;;;;;;5040725;28;20037;-63
2023/05/24 11:41:57;;;;;;;10.50;4.05;;;;;;;;;;5049191;28;20048;-63
2023/05/24 11:44:24;;;;;;;7.10;3.03;;;;;;;;;;5058297;28;20043;-63
2023/05/24 11:46:57;;;;;;;8.48;3.70;;;;;;;;;;5056729;28;20490;-63
2023/05/24 11:49:23;;;;;;;10.77;4.22;;;;;;;;;;5048903;28;20070;-63
2023/05/24 11:51:51;;;;;;;8.38;3.42;;;;;;;;;;5051586;28;20040;-63
2023/05/24 11:54:18;;;;;;;10.98;4.25;;;;;;;;;;5049121;28;20045;-63
2023/05/24 11:56:44;;;;;;;13.45;4.32;;;;;;;;;;5048385;28;20041;-63
2023/05/24 11:59:18;;;;;;;7.78;4.18;;;;;;;;;;5049529;28;20048;-63
2023/05/24 12:01:44;;;;;;;8.00;3.35;;;;;;;;;;5047466;28;20045;-63
2023/05/24 12:04:11;;;;;;;10.95;3.15;;;;;;;;;;5049306;28;20047;-63
2023/05/24 12:06:44;;;;;;;7.18;3.35;;;;;;;;;;5048255;28;20049;-63
2023/05/24 12:09:12;;;;;;;8.77;3.25;;;;;;;;;;5043918;28;20445;-63
2023/05/24 12:11:39;;;;;;;5.95;3.05;;;;;;;;;;5054810;28;20277;-63
2023/05/24 12:14:06;;;;;;;10.70;3.65;;;;;;;;;;5050710;28;20080;-63
2023/05/24 12:16:32;;;;;;;10.55;4.45;;;;;;;;;;5043773;28;20391;-62
2023/05/24 12:18:59;;;;;;;7.80;3.38;;;;;;;;;;5047858;28;20118;-63
2023/05/24 12:21:25;;;;;;;8.55;3.60;;;;;;;;;;5049680;28;20124;-62
2023/05/24 12:23:51;;;;;;;9.93;4.05;;;;;;;;;;5047849;28;20041;-63
2023/05/24 12:26:21;;;;;;;10.45;3.75;;;;;;;;;;5043265;28;20037;-63
2023/05/24 12:28:57;;;;;;;6.47;3.10;;;;;;;;;;5037856;28;20446;-63
2023/05/24 12:31:23;;;;;;;7.38;2.72;;;;;;;;;;5043930;28;20037;-63
2023/05/24 12:33:49;;;;;;;9.10;3.22;;;;;;;;;;5048236;28;20029;-64
2023/05/24 12:36:16;;;;;;;6.30;2.90;;;;;;;;;;5047577;28;20083;-62
2023/05/24 12:38:42;;;;;;;8.52;2.83;;;;;;;;;;5043864;28;20032;-62
2023/05/24 12:41:11;;;;;;;7.38;3.22;;;;;;;;;;5047268;28;20065;-62
2023/05/24 12:43:37;;;;;;;13.82;3.20;;;;;;;;;;5049129;28;20052;-62
2023/05/24 12:46:03;;;;;;;7.93;3.25;;;;;;;;;;5047287;28;20486;-63
2023/05/24 12:48:30;;;;;;;7.35;3.67;;;;;;;;;;5056648;28;20086;-63
2023/05/24 12:50:56;;;;;;;10.13;3.78;;;;;;;;;;5055541;28;20036;-63
2023/05/24 12:53:23;;;;;;;11.07;2.97;;;;;;;;;;5040982;28;20037;-62
2023/05/24 12:55:50;;;;;;;11.07;3.28;;;;;;;;;;5045430;28;20049;-62
2023/05/24 12:58:18;;;;;;;9.77;3.33;;;;;;;;;;5047548;28;20428;-63
2023/05/24 13:00:48;;;;;;;11.30;3.47;;;;;;;;;;5043584;28;20554;-62
2023/05/24 13:03:15;;;;;;;14.45;3.58;;;;;;;;;;5041789;28;20048;-62
2023/05/24 13:05:42;;;;;;;8.25;2.78;;;;;;;;;;5040491;28;20034;-62
2023/05/24 13:08:09;;;;;;;7.15;3.35;;;;;;;;;;5044829;28;20048;-63
2023/05/24 13:10:36;;;;;;;7.68;3.38;;;;;;;;;;5044769;28;20037;-62
2023/05/24 13:13:02;;;;;;;8.52;3.15;;;;;;;;;;5049200;28;20036;-62
2023/05/24 13:15:28;;;;;;;7.78;3.88;;;;;;;;;;5048070;28;20044;-63
2023/05/24 13:17:54;;;;;;;7.80;3.50;;;;;;;;;;5061431;28;20406;-63
2023/05/24 13:20:22;;;;;;;9.00;3.35;;;;;;;;;;5047682;28;20458;-64
2023/05/24 13:22:49;;;;;;;7.18;3.35;;;;;;;;;;5043404;28;20053;-62
2023/05/24 13:25:15;;;;;;;10.85;3.42;;;;;;;;;;5045628;28;20544;-62
2023/05/24 13:27:41;;;;;;;7.55;3.47;;;;;;;;;;5043600;28;20067;-62
2023/05/24 13:30:08;;;;;;;10.48;5.28;;;14.20;99.10;;;;;;5040366;28;20040;-62
2023/05/24 13:32:33;;;;;;;9.18;3.63;;;16.60;99.90;;;;;;5042343;28;20048;-62
2023/05/24 13:34:59;;;;;;;8.82;3.28;;;16.60;99.90;;;;;;5041824;28;20037;-62
2023/05/24 13:37:25;;;;;;;12.10;4.18;;;16.60;99.90;;;;;;5047893;28;20037;-62
2023/05/24 13:39:51;;;;;;;8.20;3.30;;;16.50;99.90;;;;;;5048837;28;20029;-62
2023/05/24 13:42:17;;;;;;;11.90;3.25;;;16.50;99.90;;;;;;5050135;28;20120;-62
2023/05/24 13:44:43;;;;;;;10.40;3.88;;;16.40;99.90;;;;;;5042670;28;20041;-63
2023/05/24 13:47:08;;;;;;;10.82;3.95;;;16.40;99.90;;;;;;5047526;28;20041;-62
2023/05/24 13:49:35;;;;;;;8.40;3.58;;;16.50;99.90;;;;;;5043033;28;20072;-63
2023/05/24 13:52:01;;;;;;;6.05;3.15;;;16.40;99.90;;;;;;5050664;28;20032;-63
2023/05/24 13:54:27;;;;;;;12.95;4.07;;;16.40;99.90;;;;;;5053843;28;20402;-64
2023/05/24 13:56:56;;;;;;;7.40;3.10;;;16.40;99.90;;;;;;5050865;28;20028;-63
2023/05/24 13:59:22;;;;;;;5.72;3.35;;;16.30;99.90;;;;;;5042745;28;20125;-63
2023/05/24 14:01:48;;;;;;;9.80;4.78;;;16.30;99.90;;;;;;5056290;28;20251;-63
2023/05/24 14:04:15;;;;;;;6.63;3.08;;;16.20;99.90;;;;;;5053331;28;20107;-63
2023/05/24 14:06:41;;;;;;;8.13;3.67;;;16.30;99.90;;;;;;5048634;28;20041;-63
2023/05/24 14:09:07;;;;;;;8.63;3.30;;;16.30;99.90;;;;;;5038896;28;20053;-64
2023/05/24 14:11:33;;;;;;;9.48;3.58;;;16.30;99.90;;;;;;5057353;28;20123;-63
2023/05/24 14:14:00;;;;;;;9.90;3.75;;;16.20;99.90;;;;;;5054297;28;20056;-64
2023/05/24 14:16:27;;;;;;;8.65;2.92;;;16.20;99.90;;;;;;5053392;28;20372;-63
2023/05/24 14:18:52;;;;;;;10.77;3.13;;;16.10;99.90;;;;;;5042974;28;20051;-63
2023/05/24 14:21:20;;;;;;;11.40;3.90;;;16.10;99.90;;;;;;5052000;28;20041;-63
2023/05/24 14:23:46;;;;;;;13.05;4.40;;;16.20;99.90;;;;;;5051390;28;20124;-63